Time,TemperatureF,DewpointF,PressureIn,WindDirection,WindDirectionDegrees,WindSpeedMPH,WindSpeedGustMPH,Humidity,HourlyPrecipIn,Conditions,Clouds,dailyrainin,SoftwareType,DateUTC
2013-06-17 00:02:00,65.7,58.3,22.09,West,270,0.0,2.0,77,0.00,,,0.00,meteohub,2013-06-17 05:02:00,
2013-06-17 00:07:00,65.8,58.1,22.10,SW,225,0.0,2.0,76,0.00,,,0.00,meteohub,2013-06-17 05:07:00,
2013-06-17 00:12:00,65.8,58.1,22.09,West,270,2.0,2.0,76,0.00,,,0.00,meteohub,2013-06-17 05:12:00,
2013-06-17 00:17:00,66.0,57.9,22.09,West,270,2.0,2.0,75,0.00,,,0.00,meteohub,2013-06-17 05:17:00,
2013-06-17 00:22:00,66.0,57.6,22.09,West,270,2.0,2.0,74,0.00,,,0.00,meteohub,2013-06-17 05:22:00,
2013-06-17 00:27:00,66.0,57.6,22.10,West,270,0.0,2.0,74,0.00,,,0.00,meteohub,2013-06-17 05:27:00,
2013-06-17 00:32:00,65.8,57.7,22.09,West,270,0.0,2.0,75,0.00,,,0.00,meteohub,2013-06-17 05:32:00,
2013-06-17 00:37:00,65.7,57.6,22.09,West,270,0.0,2.0,75,0.00,,,0.00,meteohub,2013-06-17 05:37:00,
2013-06-17 00:42:00,65.3,56.8,22.09,West,270,0.0,2.0,74,0.00,,,0.00,meteohub,2013-06-17 05:42:00,
2013-06-17 00:47:00,65.1,57.0,22.09,West,270,0.0,0.0,75,0.00,,,0.00,meteohub,2013-06-17 05:47:00,
2013-06-17 00:52:00,64.9,56.8,22.09,SE,135,2.0,0.0,75,0.00,,,0.00,meteohub,2013-06-17 05:52:00,
2013-06-17 00:57:00,64.9,57.6,22.08,South,180,0.0,2.0,77,0.00,,,0.00,meteohub,2013-06-17 05:57:00,
2013-06-17 01:02:00,64.9,57.6,22.08,West,270,0.0,2.0,77,0.00,,,0.00,meteohub,2013-06-17 06:02:00,
2013-06-17 01:07:00,64.9,57.6,22.08,West,270,0.0,2.0,77,0.00,,,0.00,meteohub,2013-06-17 06:07:00,
2013-06-17 01:12:00,64.9,57.2,22.08,SW,225,1.0,2.0,76,0.00,,,0.00,meteohub,2013-06-17 06:12:00,
2013-06-17 01:17:00,64.8,57.0,22.08,West,270,2.0,2.0,76,0.00,,,0.00,meteohub,2013-06-17 06:17:00,
2013-06-17 01:22:00,64.9,57.2,22.08,South,180,0.0,2.0,76,0.00,,,0.00,meteohub,2013-06-17 06:22:00,
2013-06-17 01:27:00,64.6,56.5,22.08,South,180,0.0,2.0,75,0.00,,,0.00,meteohub,2013-06-17 06:27:00,
2013-06-17 01:32:00,64.4,57.0,22.08,South,180,2.0,2.0,77,0.00,,,0.00,meteohub,2013-06-17 06:32:00,
2013-06-17 01:37:00,64.2,57.2,22.08,West,270,0.0,3.0,78,0.00,,,0.00,meteohub,2013-06-17 06:37:00,
2013-06-17 01:42:00,64.4,57.0,22.09,NE,45,2.0,3.0,77,0.00,,,0.00,meteohub,2013-06-17 06:42:00,
2013-06-17 01:47:00,64.6,56.5,22.09,East,90,2.0,4.0,75,0.00,,,0.00,meteohub,2013-06-17 06:47:00,
2013-06-17 01:52:00,64.8,56.3,22.09,NW,315,1.0,5.0,74,0.00,,,0.00,meteohub,2013-06-17 06:52:00,
2013-06-17 01:57:00,64.4,56.7,22.09,East,90,0.0,5.0,76,0.00,,,0.00,meteohub,2013-06-17 06:57:00,
2013-06-17 02:02:00,64.0,57.0,22.09,East,90,2.0,2.0,78,0.00,,,0.00,meteohub,2013-06-17 07:02:00,
2013-06-17 02:06:00,64.0,57.0,22.09,South,180,2.0,2.0,78,0.00,,,0.00,meteohub,2013-06-17 07:06:00,
2013-06-17 02:12:00,63.7,56.7,22.09,NW,315,0.0,2.0,78,0.00,,,0.00,meteohub,2013-06-17 07:12:00,
2013-06-17 02:17:00,63.7,56.7,22.09,West,270,1.0,2.0,78,0.00,,,0.00,meteohub,2013-06-17 07:17:00,
2013-06-17 02:22:00,63.5,56.5,22.09,SW,225,0.0,2.0,78,0.00,,,0.00,meteohub,2013-06-17 07:22:00,
2013-06-17 02:27:00,63.1,56.1,22.09,SW,225,0.0,2.0,78,0.00,,,0.00,meteohub,2013-06-17 07:27:00,
2013-06-17 02:32:00,63.1,56.5,22.09,South,180,0.0,2.0,79,0.00,,,0.00,meteohub,2013-06-17 07:32:00,
2013-06-17 02:37:00,63.0,56.3,22.09,West,270,0.0,2.0,79,0.00,,,0.00,meteohub,2013-06-17 07:37:00,
2013-06-17 02:42:00,63.0,56.7,22.09,SW,225,0.0,2.0,80,0.00,,,0.00,meteohub,2013-06-17 07:42:00,
2013-06-17 02:46:00,62.8,56.5,22.09,SW,225,0.0,2.0,80,0.00,,,0.00,meteohub,2013-06-17 07:46:00,
2013-06-17 02:52:00,62.4,56.5,22.10,SW,225,2.0,0.0,81,0.00,,,0.00,meteohub,2013-06-17 07:52:00,
2013-06-17 02:57:00,62.2,56.7,22.09,West,270,2.0,2.0,82,0.00,,,0.00,meteohub,2013-06-17 07:57:00,
2013-06-17 03:02:00,62.1,56.5,22.10,West,270,0.0,2.0,82,0.00,,,0.00,meteohub,2013-06-17 08:02:00,
2013-06-17 03:07:00,62.1,56.5,22.10,West,270,0.0,2.0,82,0.00,,,0.00,meteohub,2013-06-17 08:07:00,
2013-06-17 03:12:00,61.2,55.9,22.10,SW,225,0.0,2.0,83,0.00,,,0.00,meteohub,2013-06-17 08:12:00,
2013-06-17 03:17:00,60.8,55.6,22.09,West,270,2.0,0.0,83,0.00,,,0.00,meteohub,2013-06-17 08:17:00,
2013-06-17 03:21:00,60.6,55.8,22.09,West,270,2.0,2.0,84,0.00,,,0.00,meteohub,2013-06-17 08:21:00,
2013-06-17 03:27:00,60.6,56.1,22.09,West,270,0.0,2.0,85,0.00,,,0.00,meteohub,2013-06-17 08:27:00,
2013-06-17 03:32:00,60.3,56.1,22.09,East,90,1.0,2.0,86,0.00,,,0.00,meteohub,2013-06-17 08:32:00,
2013-06-17 03:37:00,60.4,56.8,22.09,SW,225,2.0,2.0,88,0.00,,,0.00,meteohub,2013-06-17 08:37:00,
2013-06-17 03:42:00,60.3,57.0,22.09,South,180,2.0,4.0,89,0.00,,,0.00,meteohub,2013-06-17 08:42:00,
2013-06-17 03:47:00,60.1,57.2,22.09,South,180,2.0,4.0,90,0.00,,,0.00,meteohub,2013-06-17 08:47:00,
2013-06-17 03:52:00,59.9,57.0,22.09,West,270,2.0,4.0,90,0.00,,,0.00,meteohub,2013-06-17 08:52:00,
2013-06-17 03:57:00,59.9,57.0,22.09,NE,45,0.0,4.0,90,0.00,,,0.00,meteohub,2013-06-17 08:57:00,
2013-06-17 04:02:00,59.5,56.7,22.09,NE,45,0.0,4.0,90,0.00,,,0.00,meteohub,2013-06-17 09:02:00,
2013-06-17 04:07:00,59.7,56.8,22.10,West,270,0.0,2.0,90,0.00,,,0.00,meteohub,2013-06-17 09:07:00,
2013-06-17 04:12:00,59.7,57.0,22.10,SE,135,1.0,2.0,91,0.00,,,0.00,meteohub,2013-06-17 09:12:00,
2013-06-17 04:17:00,59.5,56.8,22.10,SW,225,0.0,2.0,91,0.00,,,0.00,meteohub,2013-06-17 09:17:00,
2013-06-17 04:22:00,59.7,57.0,22.09,North,0,2.0,2.0,91,0.00,,,0.00,meteohub,2013-06-17 09:22:00,
2013-06-17 04:27:00,60.1,57.7,22.07,SE,135,3.0,6.0,92,0.00,,,0.00,meteohub,2013-06-17 09:27:00,
2013-06-17 04:32:00,60.6,58.3,22.07,East,90,3.0,6.0,92,0.00,,,0.00,meteohub,2013-06-17 09:32:00,
2013-06-17 04:37:00,60.8,57.9,22.06,NE,45,6.0,7.0,90,0.00,,,0.00,meteohub,2013-06-17 09:37:00,
2013-06-17 04:42:00,61.0,57.7,22.07,East,90,11.0,11.0,89,0.00,,,0.00,meteohub,2013-06-17 09:42:00,
2013-06-17 04:47:00,62.2,59.0,22.08,East,90,16.0,16.0,89,0.01,,,0.01,meteohub,2013-06-17 09:47:00,
2013-06-17 04:52:00,62.8,58.5,22.11,East,90,15.0,18.0,86,0.02,,,0.02,meteohub,2013-06-17 09:52:00,
2013-06-17 04:57:00,63.3,58.5,22.10,North,0,3.0,18.0,84,0.04,,,0.04,meteohub,2013-06-17 09:57:00,
2013-06-17 05:02:00,63.1,58.6,22.10,West,270,3.0,17.0,85,0.04,,,0.04,meteohub,2013-06-17 10:02:00,
2013-06-17 05:07:00,63.1,58.6,22.10,West,270,3.0,17.0,85,0.04,,,0.04,meteohub,2013-06-17 10:07:00,
2013-06-17 05:12:00,61.3,58.1,22.10,West,270,3.0,6.0,89,0.04,,,0.04,meteohub,2013-06-17 10:12:00,
2013-06-17 05:17:00,61.0,58.3,22.09,West,270,2.0,3.0,91,0.04,,,0.04,meteohub,2013-06-17 10:17:00,
2013-06-17 05:21:00,60.8,58.5,22.10,East,90,2.0,4.0,92,0.04,,,0.04,meteohub,2013-06-17 10:21:00,
2013-06-17 05:26:00,60.6,58.6,22.10,West,270,3.0,4.0,93,0.04,,,0.04,meteohub,2013-06-17 10:26:00,
2013-06-17 05:32:00,60.3,58.3,22.10,NW,315,2.0,4.0,93,0.04,,,0.04,meteohub,2013-06-17 10:32:00,
2013-06-17 05:37:00,60.3,58.5,22.10,NW,315,0.0,4.0,94,0.04,,,0.04,meteohub,2013-06-17 10:37:00,
2013-06-17 05:42:00,60.1,58.6,22.10,West,270,1.0,4.0,95,0.04,,,0.04,meteohub,2013-06-17 10:42:00,
2013-06-17 05:47:00,59.9,58.5,22.11,SW,225,4.0,4.0,95,0.01,,,0.04,meteohub,2013-06-17 10:47:00,
2013-06-17 05:52:00,59.9,58.8,22.10,NW,315,0.0,4.0,96,0.01,,,0.05,meteohub,2013-06-17 10:52:00,
2013-06-17 05:56:00,59.9,58.8,22.11,NW,315,1.0,4.0,96,0.01,,,0.05,meteohub,2013-06-17 10:56:00,
2013-06-17 06:02:00,59.9,58.8,22.11,North,0,0.0,4.0,96,0.01,,,0.05,meteohub,2013-06-17 11:02:00,
2013-06-17 06:07:00,60.1,59.0,22.11,North,0,0.0,2.0,96,0.01,,,0.05,meteohub,2013-06-17 11:07:00,
2013-06-17 06:12:00,60.1,59.0,22.11,North,0,0.0,2.0,96,0.01,,,0.05,meteohub,2013-06-17 11:12:00,
2013-06-17 06:17:00,60.1,59.0,22.10,SE,135,0.0,1.0,96,0.01,,,0.05,meteohub,2013-06-17 11:17:00,
2013-06-17 06:22:00,60.3,59.4,22.11,NE,45,0.0,0.0,97,0.01,,,0.05,meteohub,2013-06-17 11:22:00,
2013-06-17 06:27:00,60.6,59.7,22.11,West,270,0.0,0.0,97,0.01,,,0.05,meteohub,2013-06-17 11:27:00,
2013-06-17 06:32:00,60.8,59.7,22.11,West,270,0.0,0.0,96,0.01,,,0.05,meteohub,2013-06-17 11:32:00,
2013-06-17 06:37:00,61.0,59.9,22.10,West,270,0.0,0.0,96,0.01,,,0.05,meteohub,2013-06-17 11:37:00,
2013-06-17 06:42:00,61.3,60.3,22.10,SW,225,2.0,0.0,96,0.01,,,0.05,meteohub,2013-06-17 11:42:00,
2013-06-17 06:47:00,61.9,61.0,22.10,NW,315,2.0,2.0,97,0.01,,,0.05,meteohub,2013-06-17 11:47:00,
2013-06-17 06:52:00,63.5,62.6,22.10,North,0,2.0,2.0,97,0.00,,,0.05,meteohub,2013-06-17 11:52:00,
2013-06-17 06:57:00,64.9,63.5,22.10,NW,315,0.0,2.0,95,0.00,,,0.05,meteohub,2013-06-17 11:57:00,
2013-06-17 07:02:00,65.8,64.0,22.10,NE,45,0.0,3.0,94,0.00,,,0.05,meteohub,2013-06-17 12:02:00,
2013-06-17 07:07:00,65.8,64.0,22.10,NE,45,0.0,3.0,94,0.00,,,0.05,meteohub,2013-06-17 12:07:00,
2013-06-17 07:12:00,68.7,63.0,22.10,West,270,2.0,3.0,82,0.00,,,0.05,meteohub,2013-06-17 12:12:00,
2013-06-17 07:17:00,68.5,62.1,22.10,South,180,2.0,4.0,80,0.00,,,0.05,meteohub,2013-06-17 12:17:00,
2013-06-17 07:22:00,68.5,61.7,22.11,North,0,2.0,4.0,79,0.00,,,0.05,meteohub,2013-06-17 12:22:00,
2013-06-17 07:27:00,69.1,61.5,22.10,NW,315,4.0,4.0,77,0.00,,,0.05,meteohub,2013-06-17 12:27:00,
2013-06-17 07:32:00,69.8,61.2,22.10,SW,225,2.0,4.0,74,0.00,,,0.05,meteohub,2013-06-17 12:32:00,
2013-06-17 07:37:00,70.2,60.6,22.10,SW,225,3.0,4.0,72,0.00,,,0.05,meteohub,2013-06-17 12:37:00,
2013-06-17 07:42:00,70.7,60.8,22.09,NW,315,2.0,4.0,71,0.00,,,0.05,meteohub,2013-06-17 12:42:00,
2013-06-17 07:47:00,71.1,60.4,22.09,NE,45,4.0,4.0,69,0.00,,,0.05,meteohub,2013-06-17 12:47:00,
2013-06-17 07:52:00,72.1,61.3,22.09,North,0,1.0,7.0,69,0.00,,,0.05,meteohub,2013-06-17 12:52:00,
2013-06-17 07:57:00,72.5,61.3,22.08,North,0,4.0,7.0,68,0.00,,,0.05,meteohub,2013-06-17 12:57:00,
2013-06-17 08:02:00,72.7,61.5,22.08,NE,45,2.0,4.0,68,0.00,,,0.05,meteohub,2013-06-17 13:02:00,
2013-06-17 08:07:00,72.9,61.7,22.08,North,0,0.0,4.0,68,0.00,,,0.05,meteohub,2013-06-17 13:07:00,
2013-06-17 08:12:00,73.2,62.4,22.08,ESE,113,2.0,4.0,69,0.00,,,0.05,meteohub,2013-06-17 13:12:00,
2013-06-17 08:17:00,73.2,60.8,22.07,West,270,2.0,4.0,65,0.00,,,0.05,meteohub,2013-06-17 13:17:00,
2013-06-17 08:22:00,73.6,61.5,22.07,West,270,3.0,4.0,66,0.00,,,0.05,meteohub,2013-06-17 13:22:00,
2013-06-17 08:27:00,73.9,62.2,22.08,NW,315,4.0,4.0,67,0.00,,,0.05,meteohub,2013-06-17 13:27:00,
2013-06-17 08:31:00,73.9,61.0,22.08,South,180,2.0,4.0,64,0.00,,,0.05,meteohub,2013-06-17 13:31:00,
2013-06-17 08:36:00,73.6,61.2,22.07,East,90,4.0,8.0,65,0.00,,,0.05,meteohub,2013-06-17 13:36:00,
2013-06-17 08:41:00,73.8,61.3,22.07,NW,315,2.0,8.0,65,0.00,,,0.05,meteohub,2013-06-17 13:41:00,
2013-06-17 08:46:00,75.2,62.6,22.07,SW,225,2.0,8.0,65,0.00,,,0.05,meteohub,2013-06-17 13:46:00,
2013-06-17 08:52:00,76.1,62.1,22.07,West,270,2.0,5.0,62,0.00,,,0.05,meteohub,2013-06-17 13:52:00,
2013-06-17 08:57:00,76.5,62.4,22.08,North,0,4.0,4.0,62,0.00,,,0.05,meteohub,2013-06-17 13:57:00,
2013-06-17 09:02:00,76.6,62.2,22.08,West,270,2.0,4.0,61,0.00,,,0.05,meteohub,2013-06-17 14:02:00,
2013-06-17 09:07:00,77.5,63.0,22.08,SW,225,4.0,4.0,61,0.00,,,0.05,meteohub,2013-06-17 14:07:00,
2013-06-17 09:12:00,77.9,63.0,22.08,SW,225,3.0,4.0,60,0.00,,,0.05,meteohub,2013-06-17 14:12:00,
2013-06-17 09:17:00,78.8,62.2,22.07,SW,225,4.0,4.0,57,0.00,,,0.05,meteohub,2013-06-17 14:17:00,
2013-06-17 09:22:00,78.4,60.4,22.08,NE,45,8.0,8.0,54,0.00,,,0.05,meteohub,2013-06-17 14:22:00,
2013-06-17 09:27:00,78.6,59.0,22.08,SW,225,2.0,8.0,51,0.00,,,0.05,meteohub,2013-06-17 14:27:00,
2013-06-17 09:32:00,79.5,59.2,22.08,North,0,4.0,9.0,50,0.00,,,0.05,meteohub,2013-06-17 14:32:00,
2013-06-17 09:37:00,79.7,57.7,22.08,NE,45,11.0,11.0,47,0.00,,,0.05,meteohub,2013-06-17 14:37:00,
2013-06-17 09:42:00,79.7,57.7,22.08,NE,45,4.0,11.0,47,0.00,,,0.05,meteohub,2013-06-17 14:42:00,
2013-06-17 09:47:00,79.7,57.7,22.08,NW,315,2.0,11.0,47,0.00,,,0.05,meteohub,2013-06-17 14:47:00,
2013-06-17 09:52:00,80.4,59.0,22.08,East,90,4.0,11.0,48,0.00,,,0.05,meteohub,2013-06-17 14:52:00,
2013-06-17 09:57:00,81.1,58.5,22.07,East,90,7.0,7.0,46,0.00,,,0.05,meteohub,2013-06-17 14:57:00,
2013-06-17 10:01:00,81.3,58.6,22.08,WSW,248,9.0,9.0,46,0.00,,,0.05,meteohub,2013-06-17 15:01:00,
2013-06-17 10:06:00,80.4,59.5,22.08,East,90,5.0,9.0,49,0.00,,,0.05,meteohub,2013-06-17 15:06:00,
2013-06-17 10:12:00,80.8,59.9,22.07,NW,315,5.0,9.0,49,0.00,,,0.05,meteohub,2013-06-17 15:12:00,
2013-06-17 10:17:00,81.9,59.0,22.07,SE,135,4.0,9.0,46,0.00,,,0.05,meteohub,2013-06-17 15:17:00,
2013-06-17 10:22:00,81.7,58.3,22.07,East,90,4.0,8.0,45,0.00,,,0.05,meteohub,2013-06-17 15:22:00,
2013-06-17 10:27:00,81.5,58.6,22.08,NW,315,5.0,9.0,46,0.00,,,0.05,meteohub,2013-06-17 15:27:00,
2013-06-17 10:32:00,81.5,59.9,22.08,NW,315,6.0,9.0,48,0.00,,,0.05,meteohub,2013-06-17 15:32:00,
2013-06-17 10:37:00,81.9,60.3,22.07,North,0,6.0,8.0,48,0.00,,,0.05,meteohub,2013-06-17 15:37:00,
2013-06-17 10:42:00,82.0,60.4,22.07,NW,315,5.0,8.0,48,0.00,,,0.05,meteohub,2013-06-17 15:42:00,
2013-06-17 10:46:00,82.4,59.5,22.07,SW,225,3.0,8.0,46,0.00,,,0.05,meteohub,2013-06-17 15:46:00,
2013-06-17 10:51:00,81.7,58.8,22.07,NE,45,5.0,8.0,46,0.00,,,0.05,meteohub,2013-06-17 15:51:00,
2013-06-17 10:56:00,80.6,57.9,22.07,NE,45,4.0,8.0,46,0.00,,,0.05,meteohub,2013-06-17 15:56:00,
2013-06-17 11:01:00,80.2,59.9,22.07,NW,315,2.0,8.0,50,0.00,,,0.05,meteohub,2013-06-17 16:01:00,
2013-06-17 11:07:00,80.2,59.4,22.07,NE,45,5.0,8.0,49,0.00,,,0.05,meteohub,2013-06-17 16:07:00,
2013-06-17 11:12:00,81.5,60.4,22.08,North,0,3.0,8.0,49,0.00,,,0.05,meteohub,2013-06-17 16:12:00,
2013-06-17 11:17:00,82.6,61.0,22.08,East,90,5.0,7.0,48,0.00,,,0.05,meteohub,2013-06-17 16:17:00,
2013-06-17 11:22:00,81.9,59.0,22.08,NE,45,4.0,7.0,46,0.00,,,0.05,meteohub,2013-06-17 16:22:00,
2013-06-17 11:27:00,81.7,59.5,22.08,NNW,338,3.0,5.0,47,0.00,,,0.05,meteohub,2013-06-17 16:27:00,
2013-06-17 11:31:00,81.1,57.7,22.08,North,0,5.0,8.0,45,0.00,,,0.05,meteohub,2013-06-17 16:31:00,
2013-06-17 11:36:00,81.3,58.6,22.07,NW,315,6.0,9.0,46,0.00,,,0.05,meteohub,2013-06-17 16:36:00,
2013-06-17 11:41:00,80.2,58.1,22.08,NW,315,3.0,9.0,47,0.00,,,0.05,meteohub,2013-06-17 16:41:00,
2013-06-17 11:46:00,79.5,57.6,22.08,SW,225,4.0,9.0,47,0.00,,,0.05,meteohub,2013-06-17 16:46:00,
2013-06-17 11:51:00,81.3,59.2,22.08,SE,135,7.0,9.0,47,0.00,,,0.05,meteohub,2013-06-17 16:51:00,
2013-06-17 11:57:00,83.3,59.2,22.08,NE,45,7.0,9.0,44,0.00,,,0.05,meteohub,2013-06-17 16:57:00,
2013-06-17 12:02:00,84.0,58.5,22.08,NE,45,13.0,13.0,42,0.00,,,0.05,meteohub,2013-06-17 17:02:00,
2013-06-17 12:06:00,84.7,58.5,22.08,South,180,4.0,13.0,41,0.00,,,0.05,meteohub,2013-06-17 17:06:00,
2013-06-17 12:11:00,86.7,59.5,22.09,SW,225,7.0,13.0,40,0.00,,,0.05,meteohub,2013-06-17 17:11:00,
2013-06-17 12:16:00,86.5,55.6,22.09,East,90,7.0,13.0,35,0.00,,,0.05,meteohub,2013-06-17 17:16:00,
2013-06-17 12:21:00,86.7,55.0,22.09,ENE,68,8.0,9.0,34,0.00,,,0.05,meteohub,2013-06-17 17:21:00,
2013-06-17 12:26:00,85.5,55.4,22.08,WSW,248,6.0,12.0,36,0.00,,,0.05,meteohub,2013-06-17 17:26:00,
2013-06-17 12:31:00,86.0,54.3,22.09,North,0,7.0,12.0,34,0.00,,,0.05,meteohub,2013-06-17 17:31:00,
2013-06-17 12:36:00,87.3,54.7,22.09,East,90,9.0,12.0,33,0.00,,,0.05,meteohub,2013-06-17 17:36:00,
2013-06-17 12:41:00,86.0,52.7,22.09,East,90,8.0,10.0,32,0.00,,,0.05,meteohub,2013-06-17 17:41:00,
2013-06-17 12:46:00,86.0,52.7,22.09,North,0,11.0,12.0,32,0.00,,,0.05,meteohub,2013-06-17 17:46:00,
2013-06-17 12:51:00,86.5,54.9,22.09,South,180,8.0,13.0,34,0.00,,,0.05,meteohub,2013-06-17 17:51:00,
2013-06-17 12:56:00,87.1,53.6,22.09,North,0,10.0,13.0,32,0.00,,,0.05,meteohub,2013-06-17 17:56:00,
2013-06-17 13:01:00,87.1,54.5,22.09,NE,45,6.0,13.0,33,0.00,,,0.05,meteohub,2013-06-17 18:01:00,
2013-06-17 13:06:00,87.1,52.7,22.09,South,180,4.0,12.0,31,0.00,,,0.05,meteohub,2013-06-17 18:06:00,
2013-06-17 13:11:00,87.8,51.6,22.09,NW,315,11.0,12.0,29,0.00,,,0.05,meteohub,2013-06-17 18:11:00,
2013-06-17 13:16:00,86.9,52.7,22.09,North,0,13.0,17.0,31,0.00,,,0.05,meteohub,2013-06-17 18:16:00,
2013-06-17 13:22:00,86.7,52.5,22.09,North,0,8.0,17.0,31,0.00,,,0.05,meteohub,2013-06-17 18:22:00,
2013-06-17 13:27:00,86.9,51.8,22.09,NW,315,8.0,18.0,30,0.00,,,0.05,meteohub,2013-06-17 18:27:00,
2013-06-17 13:31:00,86.5,52.3,22.09,NNW,338,10.0,18.0,31,0.00,,,0.05,meteohub,2013-06-17 18:31:00,
2013-06-17 13:36:00,86.4,52.2,22.09,NW,315,8.0,19.0,31,0.00,,,0.05,meteohub,2013-06-17 18:36:00,
2013-06-17 13:41:00,87.3,52.9,22.09,East,90,12.0,20.0,31,0.00,,,0.05,meteohub,2013-06-17 18:41:00,
2013-06-17 13:46:00,86.9,51.8,22.09,NE,45,15.0,21.0,30,0.00,,,0.05,meteohub,2013-06-17 18:46:00,
2013-06-17 13:51:00,86.5,51.4,22.09,NW,315,8.0,21.0,30,0.00,,,0.05,meteohub,2013-06-17 18:51:00,
2013-06-17 13:56:00,86.7,51.6,22.10,North,0,9.0,21.0,30,0.00,,,0.05,meteohub,2013-06-17 18:56:00,
2013-06-17 14:01:00,86.7,51.6,22.10,NE,45,7.0,25.0,30,0.00,,,0.05,meteohub,2013-06-17 19:01:00,
2013-06-17 14:06:00,86.5,52.3,22.10,SW,225,15.0,25.0,31,0.00,,,0.05,meteohub,2013-06-17 19:06:00,
2013-06-17 14:11:00,86.9,51.8,22.09,NE,45,20.0,25.0,30,0.00,,,0.05,meteohub,2013-06-17 19:11:00,
2013-06-17 14:16:00,86.5,52.3,22.10,North,0,13.0,20.0,31,0.00,,,0.05,meteohub,2013-06-17 19:16:00,
2013-06-17 14:21:00,87.3,52.9,22.10,South,180,9.0,20.0,31,0.00,,,0.05,meteohub,2013-06-17 19:21:00,
2013-06-17 14:26:00,86.5,52.3,22.10,WNW,293,11.0,20.0,31,0.00,,,0.05,meteohub,2013-06-17 19:26:00,
2013-06-17 14:31:00,87.4,52.2,22.10,West,270,30.0,30.0,30,0.00,,,0.05,meteohub,2013-06-17 19:31:00,
2013-06-17 14:36:00,87.1,51.8,22.10,East,90,15.0,30.0,30,0.00,,,0.05,meteohub,2013-06-17 19:36:00,
2013-06-17 14:41:00,86.7,51.6,22.10,East,90,12.0,30.0,30,0.00,,,0.05,meteohub,2013-06-17 19:41:00,
2013-06-17 14:46:00,86.2,51.1,22.10,NW,315,14.0,30.0,30,0.00,,,0.05,meteohub,2013-06-17 19:46:00,
2013-06-17 14:51:00,86.5,52.3,22.10,NE,45,12.0,22.0,31,0.00,,,0.05,meteohub,2013-06-17 19:51:00,
2013-06-17 14:56:00,86.9,52.7,22.10,North,0,6.0,22.0,31,0.00,,,0.05,meteohub,2013-06-17 19:56:00,
2013-06-17 15:01:00,86.2,53.8,22.10,East,90,9.0,19.0,33,0.00,,,0.05,meteohub,2013-06-17 20:01:00,
2013-06-17 15:06:00,87.4,54.0,22.10,South,180,10.0,13.0,32,0.00,,,0.05,meteohub,2013-06-17 20:06:00,
2013-06-17 15:11:00,86.4,53.1,22.10,NE,45,8.0,21.0,32,0.00,,,0.05,meteohub,2013-06-17 20:11:00,
2013-06-17 15:17:00,87.3,53.8,22.11,East,90,11.0,21.0,32,0.00,,,0.05,meteohub,2013-06-17 20:17:00,
2013-06-17 15:22:00,87.3,52.9,22.11,North,0,11.0,21.0,31,0.00,,,0.05,meteohub,2013-06-17 20:22:00,
2013-06-17 15:27:00,86.5,53.2,22.11,SW,225,8.0,20.0,32,0.00,,,0.05,meteohub,2013-06-17 20:27:00,
2013-06-17 15:32:00,87.3,54.7,22.11,North,0,16.0,20.0,33,0.00,,,0.05,meteohub,2013-06-17 20:32:00,
2013-06-17 15:37:00,87.1,53.6,22.10,NW,315,12.0,20.0,32,0.00,,,0.05,meteohub,2013-06-17 20:37:00,
2013-06-17 15:42:00,86.9,53.4,22.11,SE,135,11.0,18.0,32,0.00,,,0.05,meteohub,2013-06-17 20:42:00,
2013-06-17 15:47:00,86.4,51.3,22.11,East,90,9.0,18.0,30,0.00,,,0.05,meteohub,2013-06-17 20:47:00,
2013-06-17 15:52:00,87.6,53.2,22.11,South,180,10.0,18.0,31,0.00,,,0.05,meteohub,2013-06-17 20:52:00,
2013-06-17 15:57:00,87.3,52.0,22.11,North,0,12.0,15.0,30,0.00,,,0.05,meteohub,2013-06-17 20:57:00,
2013-06-17 16:01:00,85.6,52.3,22.11,WNW,293,10.0,15.0,32,0.00,,,0.05,meteohub,2013-06-17 21:01:00,
2013-06-17 16:06:00,85.5,52.2,22.11,East,90,5.0,15.0,32,0.00,,,0.05,meteohub,2013-06-17 21:06:00,
2013-06-17 16:11:00,86.4,53.1,22.11,NE,45,17.0,17.0,32,0.00,,,0.05,meteohub,2013-06-17 21:11:00,
2013-06-17 16:17:00,86.9,51.8,22.11,NE,45,8.0,17.0,30,0.00,,,0.05,meteohub,2013-06-17 21:17:00,
2013-06-17 16:22:00,87.3,52.0,22.11,NW,315,7.0,17.0,30,0.00,,,0.05,meteohub,2013-06-17 21:22:00,
2013-06-17 16:27:00,86.5,51.4,22.10,NW,315,6.0,17.0,30,0.00,,,0.05,meteohub,2013-06-17 21:27:00,
2013-06-17 16:32:00,84.2,51.1,22.10,ENE,68,7.0,17.0,32,0.00,,,0.05,meteohub,2013-06-17 21:32:00,
2013-06-17 16:37:00,86.5,53.2,22.10,NE,45,8.0,15.0,32,0.00,,,0.05,meteohub,2013-06-17 21:37:00,
2013-06-17 16:42:00,87.1,51.8,22.10,SE,135,11.0,11.0,30,0.00,,,0.05,meteohub,2013-06-17 21:42:00,
2013-06-17 16:47:00,84.2,51.1,22.10,East,90,6.0,12.0,32,0.00,,,0.05,meteohub,2013-06-17 21:47:00,
2013-06-17 16:52:00,83.1,52.7,22.10,East,90,4.0,12.0,35,0.00,,,0.05,meteohub,2013-06-17 21:52:00,
2013-06-17 16:57:00,83.5,53.8,22.10,East,90,11.0,12.0,36,0.00,,,0.05,meteohub,2013-06-17 21:57:00,
2013-06-17 17:01:00,82.6,53.6,22.10,NE,45,9.0,11.0,37,0.00,,,0.05,meteohub,2013-06-17 22:01:00,
2013-06-17 17:07:00,81.7,52.9,22.10,East,90,6.0,15.0,37,0.00,,,0.05,meteohub,2013-06-17 22:07:00,
2013-06-17 17:12:00,81.5,53.4,22.09,SE,135,5.0,15.0,38,0.00,,,0.05,meteohub,2013-06-17 22:12:00,
2013-06-17 17:17:00,81.5,54.1,22.09,East,90,11.0,14.0,39,0.00,,,0.05,meteohub,2013-06-17 22:17:00,
2013-06-17 17:21:00,81.5,54.1,22.09,East,90,5.0,11.0,39,0.00,,,0.05,meteohub,2013-06-17 22:21:00,
2013-06-17 17:26:00,81.5,54.1,22.10,East,90,16.0,16.0,39,0.00,,,0.05,meteohub,2013-06-17 22:26:00,
2013-06-17 17:32:00,82.6,55.8,22.10,East,90,11.0,16.0,40,0.00,,,0.05,meteohub,2013-06-17 22:32:00,
2013-06-17 17:37:00,82.0,54.0,22.10,SE,135,6.0,16.0,38,0.00,,,0.05,meteohub,2013-06-17 22:37:00,
2013-06-17 17:42:00,81.1,53.1,22.10,SE,135,8.0,16.0,38,0.00,,,0.05,meteohub,2013-06-17 22:42:00,
2013-06-17 17:47:00,80.8,53.6,22.10,East,90,10.0,15.0,39,0.00,,,0.05,meteohub,2013-06-17 22:47:00,
2013-06-17 17:52:00,81.1,53.8,22.10,East,90,8.0,15.0,39,0.00,,,0.05,meteohub,2013-06-17 22:52:00,
2013-06-17 17:57:00,82.2,54.9,22.10,SE,135,8.0,15.0,39,0.00,,,0.05,meteohub,2013-06-17 22:57:00,
2013-06-17 18:02:00,81.5,54.9,22.09,NE,45,15.0,15.0,40,0.00,,,0.05,meteohub,2013-06-17 23:02:00,
2013-06-17 18:07:00,78.6,60.6,22.09,East,90,13.0,15.0,54,0.00,,,0.05,meteohub,2013-06-17 23:07:00,
2013-06-17 18:12:00,75.2,61.3,22.08,West,270,3.0,15.0,62,0.00,,,0.05,meteohub,2013-06-17 23:12:00,
2013-06-17 18:16:00,73.8,61.3,22.07,SE,135,8.0,15.0,65,0.00,,,0.05,meteohub,2013-06-17 23:16:00,
2013-06-17 18:22:00,73.4,62.2,22.07,SE,135,17.0,17.0,68,0.00,,,0.05,meteohub,2013-06-17 23:22:00,
2013-06-17 18:27:00,72.7,61.9,22.06,SE,135,9.0,17.0,69,0.00,,,0.05,meteohub,2013-06-17 23:27:00,
2013-06-17 18:32:00,72.3,62.1,22.06,SSE,158,8.0,17.0,70,0.00,,,0.05,meteohub,2013-06-17 23:32:00,
2013-06-17 18:36:00,72.5,61.7,22.06,SE,135,8.0,17.0,69,0.00,,,0.05,meteohub,2013-06-17 23:36:00,
2013-06-17 18:41:00,72.0,61.2,22.06,SE,135,6.0,15.0,69,0.00,,,0.05,meteohub,2013-06-17 23:41:00,
2013-06-17 18:47:00,71.8,61.5,22.05,SE,135,11.0,11.0,70,0.00,,,0.05,meteohub,2013-06-17 23:47:00,
2013-06-17 18:52:00,69.8,62.6,22.06,East,90,7.0,15.0,78,0.01,,,0.06,meteohub,2013-06-17 23:52:00,
2013-06-17 18:57:00,68.5,63.1,22.06,SE,135,4.0,15.0,83,0.06,,,0.11,meteohub,2013-06-17 23:57:00,
2013-06-17 19:02:00,68.0,63.3,22.06,SE,135,2.0,15.0,85,0.06,,,0.11,meteohub,2013-06-18 00:02:00,
2013-06-17 19:07:00,68.9,64.6,22.05,SE,135,2.0,8.0,86,0.06,,,0.00,meteohub,2013-06-18 00:07:00,
2013-06-17 19:12:00,69.6,64.6,22.06,East,90,2.0,5.0,84,0.06,,,0.00,meteohub,2013-06-18 00:12:00,
2013-06-17 19:17:00,68.9,63.9,22.05,East,90,4.0,5.0,84,0.06,,,0.00,meteohub,2013-06-18 00:17:00,
2013-06-17 19:22:00,68.2,62.4,22.06,South,180,4.0,7.0,82,0.06,,,0.00,meteohub,2013-06-18 00:22:00,
2013-06-17 19:27:00,67.5,62.1,22.06,East,90,1.0,7.0,83,0.06,,,0.00,meteohub,2013-06-18 00:27:00,
2013-06-17 19:32:00,66.9,61.5,22.05,SE,135,0.0,4.0,83,0.06,,,0.00,meteohub,2013-06-18 00:32:00,
2013-06-17 19:37:00,66.7,61.3,22.05,NW,315,0.0,4.0,83,0.06,,,0.00,meteohub,2013-06-18 00:37:00,
2013-06-17 19:42:00,66.6,61.2,22.04,SW,225,2.0,4.0,83,0.06,,,0.00,meteohub,2013-06-18 00:42:00,
2013-06-17 19:47:00,66.4,61.3,22.05,SW,225,2.0,3.0,84,0.06,,,0.00,meteohub,2013-06-18 00:47:00,
2013-06-17 19:52:00,66.0,61.7,22.05,South,180,2.0,4.0,86,0.01,,,0.00,meteohub,2013-06-18 00:52:00,
2013-06-17 19:57:00,66.0,62.1,22.05,NW,315,0.0,4.0,87,0.00,,,0.00,meteohub,2013-06-18 00:57:00,
2013-06-17 20:02:00,66.2,61.9,22.05,East,90,2.0,2.0,86,0.00,,,0.00,meteohub,2013-06-18 01:02:00,
2013-06-17 20:07:00,66.2,62.2,22.04,East,90,1.0,2.0,87,0.00,,,0.00,meteohub,2013-06-18 01:07:00,
2013-06-17 20:12:00,66.0,62.4,22.05,SW,225,0.0,2.0,88,0.00,,,0.00,meteohub,2013-06-18 01:12:00,
2013-06-17 20:17:00,66.0,62.4,22.04,SW,225,1.0,2.0,88,0.00,,,0.00,meteohub,2013-06-18 01:17:00,
2013-06-17 20:22:00,65.7,62.2,22.04,South,180,1.0,2.0,89,0.00,,,0.00,meteohub,2013-06-18 01:22:00,
2013-06-17 20:27:00,65.5,62.4,22.04,SW,225,2.0,2.0,90,0.00,,,0.00,meteohub,2013-06-18 01:27:00,
2013-06-17 20:32:00,65.1,62.1,22.04,West,270,2.0,2.0,90,0.00,,,0.00,meteohub,2013-06-18 01:32:00,
2013-06-17 20:37:00,64.9,62.6,22.04,West,270,1.0,2.0,92,0.00,,,0.00,meteohub,2013-06-18 01:37:00,
2013-06-17 20:42:00,64.8,62.4,22.03,East,90,3.0,3.0,92,0.00,,,0.00,meteohub,2013-06-18 01:42:00,
2013-06-17 20:47:00,64.6,62.4,22.04,West,270,1.0,5.0,93,0.00,,,0.00,meteohub,2013-06-18 01:47:00,
2013-06-17 20:52:00,64.6,62.4,22.03,West,270,3.0,5.0,93,0.00,,,0.00,meteohub,2013-06-18 01:52:00,
2013-06-17 20:57:00,64.4,62.4,22.03,East,90,5.0,5.0,93,0.00,,,0.00,meteohub,2013-06-18 01:57:00,
2013-06-17 21:02:00,64.2,62.2,22.03,West,270,3.0,5.0,93,0.00,,,0.00,meteohub,2013-06-18 02:02:00,
2013-06-17 21:07:00,64.2,62.2,22.03,South,180,3.0,5.0,93,0.00,,,0.00,meteohub,2013-06-18 02:07:00,
2013-06-17 21:12:00,64.2,62.2,22.03,SE,135,2.0,8.0,93,0.00,,,0.00,meteohub,2013-06-18 02:12:00,
2013-06-17 21:17:00,64.0,62.1,22.02,SW,225,4.0,8.0,93,0.00,,,0.00,meteohub,2013-06-18 02:17:00,
2013-06-17 21:22:00,63.9,61.9,22.02,South,180,2.0,5.0,93,0.00,,,0.00,meteohub,2013-06-18 02:22:00,
2013-06-17 21:27:00,63.7,61.7,22.02,NW,315,2.0,5.0,93,0.00,,,0.00,meteohub,2013-06-18 02:27:00,
2013-06-17 21:32:00,63.5,61.5,22.02,East,90,4.0,5.0,93,0.00,,,0.00,meteohub,2013-06-18 02:32:00,
2013-06-17 21:36:00,63.3,61.5,22.01,NW,315,3.0,5.0,94,0.00,,,0.00,meteohub,2013-06-18 02:36:00,
2013-06-17 21:42:00,63.3,61.5,22.01,SW,225,4.0,5.0,94,0.00,,,0.00,meteohub,2013-06-18 02:42:00,
2013-06-17 21:47:00,63.1,61.3,22.01,SSW,203,2.0,5.0,94,0.00,,,0.00,meteohub,2013-06-18 02:47:00,
2013-06-17 21:52:00,63.0,61.2,22.00,SE,135,2.0,5.0,94,0.00,,,0.00,meteohub,2013-06-18 02:52:00,
2013-06-17 21:57:00,63.0,61.2,22.00,West,270,2.0,5.0,94,0.00,,,0.00,meteohub,2013-06-18 02:57:00,
2013-06-17 22:02:00,62.8,61.0,22.00,SW,225,1.0,4.0,94,0.00,,,0.00,meteohub,2013-06-18 03:02:00,
2013-06-17 22:07:00,62.6,60.6,21.99,NW,315,2.0,4.0,93,0.00,,,0.00,meteohub,2013-06-18 03:07:00,
2013-06-17 22:12:00,62.4,60.6,21.99,South,180,4.0,4.0,94,0.00,,,0.00,meteohub,2013-06-18 03:12:00,
2013-06-17 22:17:00,62.2,60.4,21.99,West,270,2.0,4.0,94,0.00,,,0.00,meteohub,2013-06-18 03:17:00,
2013-06-17 22:22:00,62.1,60.3,21.99,West,270,1.0,4.0,94,0.00,,,0.00,meteohub,2013-06-18 03:22:00,
2013-06-17 22:27:00,61.9,59.9,21.99,SE,135,4.0,4.0,93,0.00,,,0.00,meteohub,2013-06-18 03:27:00,
2013-06-17 22:32:00,61.7,59.7,21.99,SW,225,4.0,4.0,93,0.00,,,0.00,meteohub,2013-06-18 03:32:00,
2013-06-17 22:37:00,61.7,59.7,21.99,SW,225,4.0,4.0,93,0.00,,,0.00,meteohub,2013-06-18 03:37:00,
2013-06-17 22:42:00,61.2,59.2,21.99,East,90,2.0,4.0,93,0.00,,,0.00,meteohub,2013-06-18 03:42:00,
2013-06-17 22:47:00,61.2,59.2,21.98,North,0,1.0,4.0,93,0.00,,,0.00,meteohub,2013-06-18 03:47:00,
2013-06-17 22:51:00,61.0,59.0,21.99,South,180,3.0,4.0,93,0.00,,,0.00,meteohub,2013-06-18 03:51:00,
2013-06-17 22:56:00,60.8,58.8,21.99,SE,135,2.0,4.0,93,0.00,,,0.00,meteohub,2013-06-18 03:56:00,
2013-06-17 23:01:00,60.8,58.8,21.98,West,270,2.0,4.0,93,0.00,,,0.00,meteohub,2013-06-18 04:01:00,
2013-06-17 23:02:00,60.8,58.8,21.98,West,270,2.0,4.0,93,0.00,,,0.00,meteohub,2013-06-18 04:02:00,
2013-06-17 23:07:00,60.8,58.8,21.98,West,270,2.0,4.0,93,0.00,,,0.00,meteohub,2013-06-18 04:07:00,
2013-06-17 23:12:00,60.6,58.8,21.98,South,180,2.0,3.0,94,0.00,,,0.00,meteohub,2013-06-18 04:12:00,
2013-06-17 23:17:00,60.6,58.8,21.98,West,270,2.0,4.0,94,0.00,,,0.00,meteohub,2013-06-18 04:17:00,
2013-06-17 23:22:00,60.4,58.6,21.98,West,270,1.0,4.0,94,0.00,,,0.00,meteohub,2013-06-18 04:22:00,
2013-06-17 23:27:00,60.3,58.5,21.98,NE,45,0.0,4.0,94,0.00,,,0.00,meteohub,2013-06-18 04:27:00,
2013-06-17 23:32:00,60.3,58.5,21.98,West,270,2.0,4.0,94,0.00,,,0.00,meteohub,2013-06-18 04:32:00,
2013-06-17 23:37:00,60.1,58.3,21.98,South,180,2.0,5.0,94,0.00,,,0.00,meteohub,2013-06-18 04:37:00,
2013-06-17 23:42:00,59.9,58.1,21.97,SE,135,2.0,5.0,94,0.00,,,0.00,meteohub,2013-06-18 04:42:00,
2013-06-17 23:47:00,59.7,58.3,21.98,SE,135,2.0,5.0,95,0.00,,,0.00,meteohub,2013-06-18 04:47:00,
2013-06-17 23:52:00,59.7,58.3,21.98,East,90,2.0,5.0,95,0.00,,,0.00,meteohub,2013-06-18 04:52:00,
2013-06-17 23:57:00,59.5,58.1,21.98,East,90,2.0,5.0,95,0.00,,,0.00,meteohub,2013-06-18 04:57:00,